KACT/ACT METAR and TAF weather

Enter ICAO airport designator
Station Type Date Time Source
KACT METAR 2021/05/12 02:14 UTC NOAA

KACT 120214Z 35007KT 1 3/4SM VCTS +RA BR OVC013 17/16 A3004 RMK AO2 LTG DSNT S RAB01 P0014 T01670156


Station Type Date Time Source
KACT Decoded METAR 2021/05/12 02:14 UTC NOAA

WACO REGIONAL AIRPORT, TX, United States (KACT) 31-36N 97-13W 151M
May 11, 2021 - 10:14 PM EDT / 2021.05.12 0214 UTC
Wind: from the N (350 degrees) at 8 MPH (7 KT):0
Visibility: 1 3/4 mile(s):0
Sky conditions: overcast
Weather: thunder in the vicinity; heavy rain; mist; Lightning observed
Precipitation last hour: 0.14 inches
Temperature: 62.1 F (16.7 C)
Dew Point: 60.1 F (15.6 C)
Relative Humidity: 93%
Pressure (altimeter): 30.04 in. Hg (1017 hPa)
ob: KACT 120214Z 35007KT 1 3/4SM VCTS +RA BR OVC013 17/16 A3004 RMK AO2 LTG DSNT S RAB01 P0014 T01670156
cycle: 2

Station Type Date Time Source
KACT TAF 2021/05/12 02:45 UTC NOAA

TAF
AMD KACT 120141Z 1202/1224 35011KT P6SM -SHRA VCTS BKN010 OVC015CB
TEMPO 1202/1203 -TSRA
FM120300 01009KT 5SM BR OVC005
FM120600 02011KT P6SM OVC005
FM121200 01010KT 3SM BR OVC004
FM121500 04011KT P6SM OVC007

Example: see airport list